Time;durP1;ratioP1;P1;durP2;ratioP2;P2;SDS_P1;SDS_P2;PMS_P1;PMS_P2;Temp;Humidity;BMP_temperature;BMP_pressure;BME280_temperature;BME280_humidity;BME280_pressure;Samples;Min_cycle;Max_cycle;Signal;HPM_P1;HPM_P2
2022/12/01 00:00:55;;;;;;;;;6.33;5.33;;;;;20.85;45.00;102489.25;5018698;28;45497;-73
2022/12/01 00:03:20;;;;;;;;;7.75;5.00;;;;;20.87;44.92;102486.50;5018143;28;47161;-73
2022/12/01 00:05:46;;;;;;;;;5.00;5.00;;;;;20.76;45.12;102459.16;5018150;28;45454;-73
2022/12/01 00:08:11;;;;;;;;;7.67;6.67;;;;;20.87;45.00;102471.44;5018558;28;45373;-73
2022/12/01 00:10:37;;;;;;;;;5.00;4.00;;;;;20.87;44.98;102492.63;5018482;28;45340;-73
2022/12/01 00:13:04;;;;;;;;;5.25;4.75;;;;;20.87;45.02;102474.09;5018312;28;45947;-73
2022/12/01 00:15:35;;;;;;;;;8.25;6.75;;;;;20.83;44.85;102467.41;5018208;28;45475;-73
2022/12/01 00:18:02;;;;;;;;;6.00;6.00;;;;;20.86;45.00;102467.16;5018365;28;45460;-73
2022/12/01 00:20:28;;;;;;;;;5.00;5.00;;;;;20.87;44.65;102481.22;5017847;28;45442;-73
2022/12/01 00:22:53;;;;;;;;;5.75;5.75;;;;;20.87;44.96;102479.38;5017822;28;45928;-73
2022/12/01 00:25:19;;;;;;;;;7.00;6.00;;;;;20.86;45.18;102483.00;5017991;28;45435;-73
2022/12/01 00:27:49;;;;;;;;;8.00;5.00;;;;;20.85;44.96;102487.47;5018263;28;45457;-73
2022/12/01 00:30:16;;;;;;;;;5.00;5.00;;;;;20.86;44.73;102493.59;5018101;28;45454;-73
2022/12/01 00:32:42;;;;;;;;;6.25;6.25;;;;;20.85;44.64;102491.91;5017365;28;46612;-72
2022/12/01 00:35:07;;;;;;;;;9.50;7.00;;;;;20.84;44.75;102498.19;5017415;28;45445;-73
2022/12/01 00:37:34;;;;;;;;;7.25;5.50;;;;;20.86;44.42;102504.19;5018132;28;45431;-72
2022/12/01 00:39:59;;;;;;;;;8.25;5.75;;;;;20.87;44.92;102497.09;5018061;28;45485;-73
2022/12/01 00:42:25;;;;;;;;;8.00;8.00;;;;;20.85;44.84;102484.81;5017686;28;46270;-73
2022/12/01 00:44:51;;;;;;;;;7.67;6.33;;;;;20.83;45.07;102485.91;5017815;28;45324;-73
2022/12/01 00:47:16;;;;;;;;;8.50;8.00;;;;;20.87;44.86;102494.44;5017887;28;45424;-73
2022/12/01 00:49:44;;;;;;;;;10.25;5.50;;;;;20.82;44.86;102490.38;5017614;28;45471;-73
2022/12/01 00:52:10;;;;;;;;;8.00;5.33;;;;;20.76;44.55;102480.34;5017679;28;46243;-73
2022/12/01 00:54:36;;;;;;;;;5.67;5.00;;;;;20.83;44.67;102499.16;5017374;28;45412;-72
2022/12/01 00:57:01;;;;;;;;;9.00;6.75;;;;;20.72;44.84;102474.44;5017639;28;45307;-73
2022/12/01 00:59:27;;;;;;;;;5.33;5.33;;;;;20.89;44.61;102500.44;4999599;28;45591;-73
2022/12/01 01:01:52;;;;;;;;;5.00;4.00;;;;;20.89;44.72;102503.09;5017674;28;46155;-73
2022/12/01 01:04:18;;;;;;;;;5.25;5.00;;;;;20.89;44.85;102489.84;5016643;28;45367;-73
2022/12/01 01:06:43;;;;;;;;;5.00;5.00;;;;;20.89;44.65;102497.78;5017236;28;45357;-72
2022/12/01 01:09:10;;;;;;;;;8.00;6.33;;;;;20.89;44.77;102495.16;5017754;28;45315;-73
2022/12/01 01:11:35;;;;;;;;;8.00;6.67;;;;;20.89;44.86;102498.63;5017305;28;45493;-73
2022/12/01 01:14:01;;;;;;;;;6.25;5.50;;;;;20.86;44.56;102498.91;5017182;28;45255;-73
2022/12/01 01:16:27;;;;;;;;;6.00;6.00;;;;;20.81;44.88;102493.16;5017348;28;45416;-73
2022/12/01 01:18:52;;;;;;;;;10.75;5.00;;;;;20.87;44.80;102500.56;5017092;28;45421;-73
2022/12/01 01:21:20;;;;;;;;;5.00;4.00;;;;;20.87;44.41;102503.19;5017171;28;45273;-73
2022/12/01 01:23:47;;;;;;;;;6.00;6.00;;;;;20.84;44.56;102504.28;5017151;28;45368;-73
2022/12/01 01:26:16;;;;;;;;;7.50;6.75;;;;;20.85;44.79;102505.97;5016981;28;45361;-73
2022/12/01 01:28:41;;;;;;;;;5.00;5.00;;;;;20.85;44.46;102515.72;5017167;28;45441;-73
2022/12/01 01:31:13;;;;;;;;;3.25;3.25;;;;;20.82;44.77;102505.41;5016937;28;45331;-73
2022/12/01 01:33:38;;;;;;;;;4.25;4.00;;;;;20.84;44.84;102520.16;4998887;28;45313;-73
2022/12/01 01:36:04;;;;;;;;;6.00;5.00;;;;;20.79;44.82;102514.44;5016883;28;45452;-73
2022/12/01 01:38:30;;;;;;;;;6.67;5.33;;;;;20.84;44.75;102520.16;5017254;28;45320;-74
2022/12/01 01:40:55;;;;;;;;;1.00;1.00;;;;;20.80;44.51;102518.78;5016916;28;47238;-73
2022/12/01 01:43:50;;;;;;;;;8.00;5.33;;;;;20.84;44.67;102536.03;5016729;28;45299;-72
2022/12/01 01:46:21;;;;;;;;;6.00;5.25;;;;;20.83;44.48;102530.91;5017108;28;45400;-72
2022/12/01 01:48:52;;;;;;;;;6.50;5.50;;;;;20.84;44.72;102532.59;5016489;28;45471;-73
2022/12/01 01:51:22;;;;;;;;;5.33;5.00;;;;;20.84;44.69;102522.00;5016724;28;45205;-73
2022/12/01 01:53:53;;;;;;;;;4.75;4.75;;;;;20.66;44.65;102501.41;5016540;28;45458;-72
2022/12/01 01:56:18;;;;;;;;;8.00;5.00;;;;;20.81;44.86;102525.75;5016777;28;45299;-71
2022/12/01 01:58:44;;;;;;;;;5.50;5.50;;;;;20.77;44.49;102521.66;5016463;28;45311;-73
2022/12/01 02:01:10;;;;;;;;;5.50;4.00;;;;;20.80;44.40;102523.22;5016642;28;46114;-73
2022/12/01 02:03:38;;;;;;;;;6.50;6.50;;;;;20.82;44.89;102526.56;5016216;28;45388;-72
2022/12/01 02:06:06;;;;;;;;;5.00;5.00;;;;;20.82;44.43;102540.63;5016807;28;45447;-72
2022/12/01 02:08:34;;;;;;;;;7.00;5.75;;;;;20.81;44.62;102546.91;5016635;28;45303;-73
2022/12/01 02:11:11;;;;;;;;;5.50;5.50;;;;;20.81;44.59;102540.78;5016366;28;47027;-73
2022/12/01 02:13:50;;;;;;;;;9.00;7.00;;;;;20.82;44.70;102531.84;5016379;28;45395;-73
2022/12/01 02:16:27;;;;;;;;;4.50;4.25;;;;;20.82;44.64;102534.50;5015923;28;45371;-72
2022/12/01 02:19:01;;;;;;;;;7.50;6.00;;;;;20.82;44.50;102540.63;5016497;28;45236;-73
2022/12/01 02:21:33;;;;;;;;;6.25;6.00;;;;;20.84;44.50;102540.53;5016077;28;47368;-73
2022/12/01 02:24:35;;;;;;;;;4.50;3.00;;;;;20.84;44.76;102545.81;5016109;28;45301;-73
2022/12/01 02:27:07;;;;;;;;;5.25;4.00;;;;;20.83;44.68;102544.13;5016409;28;45368;-73
2022/12/01 02:29:38;;;;;;;;;10.00;7.00;;;;;20.84;44.39;102543.97;5016417;28;45301;-73
2022/12/01 02:32:18;;;;;;;;;8.00;7.00;;;;;20.83;44.42;102544.13;5015602;28;46230;-73
2022/12/01 02:34:59;;;;;;;;;7.00;5.00;;;;;20.83;44.32;102539.69;5015921;28;45694;-73
2022/12/01 02:38:08;;;;;;;;;6.50;5.25;;;;;20.83;44.45;102530.91;5015975;28;45396;-73
2022/12/01 02:40:45;;;;;;;;;9.00;7.00;;;;;20.83;44.49;102528.25;4954823;28;45561;-73
2022/12/01 02:43:26;;;;;;;;;5.00;5.00;;;;;20.84;44.19;102522.00;4954735;28;47151;-73
2022/12/01 02:45:54;;;;;;;;;6.75;5.50;;;;;20.83;44.80;102518.50;4954389;28;45450;-73
2022/12/01 02:48:29;;;;;;;;;6.75;6.00;;;;;20.73;44.24;102504.41;4954885;28;45369;-73
2022/12/01 02:50:59;;;;;;;;;7.00;6.00;;;;;20.74;44.41;102504.25;4954711;28;46399;-74
2022/12/01 02:53:25;;;;;;;;;7.25;6.00;;;;;20.82;44.80;102508.88;4954343;28;47021;-73
2022/12/01 02:55:53;;;;;;;;;4.00;4.00;;;;;20.83;44.30;102512.38;4954475;28;45376;-72
2022/12/01 02:58:19;;;;;;;;;5.00;5.00;;;;;20.82;44.13;102510.69;4954631;28;45353;-72
2022/12/01 03:01:10;;;;;;;;;6.00;6.00;;;;;20.82;44.49;102519.47;4954239;28;45804;-72
2022/12/01 03:03:57;;;;;;;;;6.00;4.75;;;;;20.82;44.26;102510.69;4953934;28;45406;-72
2022/12/01 03:07:05;;;;;;;;;8.25;5.00;;;;;20.81;44.86;102504.59;4954423;28;45278;-72
2022/12/01 03:10:07;;;;;;;;;5.00;5.00;;;;;20.81;44.42;102512.53;4954512;28;45531;-72
2022/12/01 03:12:44;;;;;;;;;5.00;5.00;;;;;20.81;44.36;102528.38;4954435;28;45599;-72
2022/12/01 03:15:25;;;;;;;;;3.00;3.00;;;;;20.80;44.45;102526.69;4953809;28;47144;-73
2022/12/01 03:18:03;;;;;;;;;7.25;6.00;;;;;20.81;44.52;102530.19;4972010;28;45397;-72
2022/12/01 03:20:48;;;;;;;;;7.25;6.25;;;;;20.70;44.58;102518.72;4976190;28;45293;-72
2022/12/01 03:23:20;;;;;;;;;7.33;4.00;;;;;20.78;44.23;102539.22;4976042;28;45183;-72
2022/12/01 03:25:50;;;;;;;;;5.00;5.00;;;;;20.79;44.42;102534.78;4988775;28;46344;-72
2022/12/01 03:28:27;;;;;;;;;6.67;5.00;;;;;20.79;44.44;102524.19;4996611;28;45378;-72
2022/12/01 03:30:55;;;;;;;;;4.00;4.00;;;;;20.78;44.59;102531.28;4998876;28;45323;-72
2022/12/01 03:33:39;;;;;;;;;5.50;5.50;;;;;20.76;44.53;102527.94;4999161;28;45309;-72
2022/12/01 03:36:15;;;;;;;;;4.00;4.00;;;;;20.78;44.53;102533.94;4998759;28;46234;-72
2022/12/01 03:38:46;;;;;;;;;7.50;5.50;;;;;20.78;44.41;102520.72;4998922;28;45240;-72
2022/12/01 03:41:18;;;;;;;;;4.67;4.67;;;;;20.78;44.33;102520.72;4999161;28;45450;-73
2022/12/01 03:43:50;;;;;;;;;7.00;6.75;;;;;20.73;44.34;102507.03;4998667;28;45372;-72
2022/12/01 03:46:30;;;;;;;;;5.00;5.00;;;;;20.47;44.65;102462.50;4998923;28;45470;-72
2022/12/01 03:48:55;;;;;;;;;7.33;5.00;;;;;20.77;44.20;102513.72;4997510;28;45398;-72
2022/12/01 03:51:34;;;;;;;;;8.50;6.00;;;;;20.78;44.31;102515.41;4998968;28;45475;-72
2022/12/01 03:54:13;;;;;;;;;5.75;5.75;;;;;20.76;44.10;102512.06;4998855;28;45400;-72
2022/12/01 03:56:46;;;;;;;;;5.25;5.25;;;;;20.78;44.16;102522.50;4998412;28;45430;-72
2022/12/01 03:59:15;;;;;;;;;7.00;7.00;;;;;20.80;44.01;102528.50;5005730;28;45383;-72
2022/12/01 04:01:41;;;;;;;;;4.25;4.00;;;;;20.71;44.03;102511.63;5018659;28;45415;-73
2022/12/01 04:04:09;;;;;;;;;6.00;4.00;;;;;20.80;44.27;102518.78;5018433;28;45472;-72
2022/12/01 04:06:34;;;;;;;;;4.75;4.50;;;;;20.81;44.04;102523.09;5018524;28;46436;-72
2022/12/01 04:08:59;;;;;;;;;4.33;4.33;;;;;20.81;44.10;102522.25;5018392;28;45320;-72
2022/12/01 04:14:08;;;;;;;;;5.50;5.50;;;;;20.73;44.01;102502.59;5018208;28;45359;-73
2022/12/01 04:16:34;;;;;;;;;5.50;5.00;;;;;20.81;44.19;102515.16;5018103;28;46081;-72
2022/12/01 04:18:59;;;;;;;;;5.25;5.25;;;;;20.82;44.23;102508.03;5018305;28;45367;-72
2022/12/01 04:21:24;;;;;;;;;5.25;4.75;;;;;20.82;44.25;102506.25;5018269;28;45268;-72
2022/12/01 04:23:59;;;;;;;;;7.00;6.50;;;;;20.82;44.25;102502.75;5018207;28;45241;-72
2022/12/01 04:26:25;;;;;;;;;6.50;5.50;;;;;20.81;43.95;102515.16;5017950;28;46423;-72
2022/12/01 04:28:53;;;;;;;;;5.00;5.00;;;;;20.81;44.13;102520.47;5017768;28;45455;-73
2022/12/01 04:31:18;;;;;;;;;5.00;5.00;;;;;20.81;44.00;102523.09;5018331;28;45356;-72
2022/12/01 04:33:44;;;;;;;;;6.00;5.00;;;;;20.78;44.43;102518.06;5017881;28;45272;-72
2022/12/01 04:36:09;;;;;;;;;7.00;6.00;;;;;20.80;44.24;102517.91;5017731;28;47140;-72
2022/12/01 04:38:40;;;;;;;;;5.33;5.00;;;;;20.79;44.28;102510.97;5018095;28;45387;-73
2022/12/01 04:41:13;;;;;;;;;5.00;3.00;;;;;20.79;44.27;102513.63;5016785;28;45303;-72
2022/12/01 04:43:39;;;;;;;;;5.33;5.00;;;;;20.79;44.16;102521.56;5017449;28;45452;-72
2022/12/01 04:46:05;;;;;;;;;5.50;5.00;;;;;20.78;44.46;102522.50;5017669;28;46070;-73
2022/12/01 04:48:31;;;;;;;;;8.00;6.00;;;;;20.78;44.14;102515.41;5017590;28;45380;-73
2022/12/01 04:50:57;;;;;;;;;6.25;5.25;;;;;20.78;44.23;102518.06;5000027;28;45328;-72
2022/12/01 04:53:23;;;;;;;;;5.00;5.00;;;;;20.77;43.90;102513.72;5017699;28;45411;-73
2022/12/01 04:55:48;;;;;;;;;5.75;4.00;;;;;20.73;44.24;102504.41;5017301;28;45371;-73
2022/12/01 04:58:13;;;;;;;;;6.50;5.50;;;;;20.78;44.31;102514.56;5017641;28;45459;-72
2022/12/01 05:00:39;;;;;;;;;5.00;3.25;;;;;20.65;44.49;102490.97;5017450;28;45835;-73
2022/12/01 05:03:04;;;;;;;;;5.00;5.00;;;;;20.77;44.15;102516.38;5017600;28;45425;-72
2022/12/01 05:05:30;;;;;;;;;4.75;4.75;;;;;20.73;44.11;102515.81;5017425;28;45323;-72
2022/12/01 05:07:57;;;;;;;;;5.75;4.00;;;;;20.78;43.95;102526.00;5017504;28;45458;-72
2022/12/01 05:10:23;;;;;;;;;4.50;4.00;;;;;20.78;44.31;102522.50;5017218;28;45368;-73
2022/12/01 05:12:48;;;;;;;;;5.33;5.33;;;;;20.78;44.33;102514.56;5017387;28;45350;-72
2022/12/01 05:15:14;;;;;;;;;5.50;5.25;;;;;20.76;43.91;102516.53;5017416;28;47106;-72
2022/12/01 05:17:40;;;;;;;;;6.25;5.00;;;;;20.77;44.28;102515.53;5017278;28;45256;-73
2022/12/01 05:22:51;;;;;;;;;5.25;4.75;;;;;20.77;44.60;102508.44;5017487;28;45422;-73
2022/12/01 05:25:17;;;;;;;;;3.67;3.67;;;;;20.77;44.13;102508.44;5016499;28;46381;-72
2022/12/01 05:27:42;;;;;;;;;6.67;6.00;;;;;20.77;43.94;102512.88;5017139;28;45276;-72
2022/12/01 05:30:09;;;;;;;;;5.00;4.00;;;;;20.73;43.94;102507.03;5017291;28;45182;-73
2022/12/01 05:32:34;;;;;;;;;5.25;5.25;;;;;20.76;44.37;102506.78;5017283;28;45337;-72
2022/12/01 05:34:59;;;;;;;;;5.75;5.00;;;;;20.76;44.18;102505.94;5016931;28;45357;-72
2022/12/01 05:37:24;;;;;;;;;5.00;5.00;;;;;20.75;44.06;102510.38;5017051;28;45398;-71
2022/12/01 05:39:50;;;;;;;;;5.00;5.00;;;;;20.74;44.04;102501.59;5017029;28;45420;-72
2022/12/01 05:42:15;;;;;;;;;4.00;4.00;;;;;20.76;44.11;102498.00;5017151;28;45383;-73
2022/12/01 05:44:40;;;;;;;;;5.75;4.00;;;;;20.76;43.79;102508.59;5016487;28;56591;-72
2022/12/01 05:47:06;;;;;;;;;5.33;5.33;;;;;20.74;43.95;102509.53;5016997;28;45384;-73
2022/12/01 05:49:31;;;;;;;;;4.00;4.00;;;;;20.76;43.92;102506.78;5017039;28;45360;-72
2022/12/01 05:51:56;;;;;;;;;6.33;6.33;;;;;20.72;44.24;102508.84;5016508;28;45443;-73
2022/12/01 05:54:21;;;;;;;;;5.00;5.00;;;;;20.76;44.25;102512.06;5016179;28;46312;-72
2022/12/01 05:56:47;;;;;;;;;4.33;4.33;;;;;20.77;43.99;102511.09;5016739;28;45430;-73
2022/12/01 05:59:12;;;;;;;;;4.33;3.67;;;;;20.77;44.00;102508.44;5016854;28;45411;-73
2022/12/01 06:01:37;;;;;;;;;6.00;6.00;;;;;20.78;44.29;102514.56;5016876;28;45362;-73
2022/12/01 06:04:03;;;;;;;;;4.00;4.00;;;;;20.77;43.86;102519.03;5016578;28;45894;-73
2022/12/01 06:06:28;;;;;;;;;6.33;4.00;;;;;20.78;44.15;102519.88;5016607;28;45421;-73
2022/12/01 06:08:54;;;;;;;;;5.67;5.00;;;;;20.77;43.83;102513.72;4998716;28;45656;-73
2022/12/01 06:11:19;;;;;;;;;4.00;3.00;;;;;20.78;43.98;102512.78;5016589;28;45430;-73
2022/12/01 06:13:44;;;;;;;;;4.67;4.67;;;;;20.77;44.09;102512.88;5016314;28;46137;-73
2022/12/01 06:16:10;;;;;;;;;4.33;4.33;;;;;20.77;44.14;102511.09;5016306;28;45465;-73
2022/12/01 06:18:37;;;;;;;;;5.75;5.75;;;;;20.66;44.04;102492.66;5016437;28;45362;-73
2022/12/01 06:21:04;;;;;;;;;4.00;3.00;;;;;20.75;43.86;102510.38;5016469;28;46182;-73
2022/12/01 06:23:30;;;;;;;;;6.00;5.00;;;;;20.77;44.28;102515.53;5015855;28;46307;-73
2022/12/01 06:25:55;;;;;;;;;6.75;4.00;;;;;20.76;43.82;102520.00;5016002;28;45444;-73
2022/12/01 06:28:21;;;;;;;;;5.25;4.25;;;;;20.70;44.15;102502.84;5016437;28;45283;-73
2022/12/01 06:30:46;;;;;;;;;3.33;3.00;;;;;20.76;43.78;102512.06;5016314;28;45338;-73
2022/12/01 06:33:11;;;;;;;;;7.00;7.00;;;;;20.76;44.16;102514.72;5015983;28;46116;-73
2022/12/01 06:35:37;;;;;;;;;5.67;5.67;;;;;20.77;43.79;102510.25;5016146;28;45396;-73
2022/12/01 06:38:03;;;;;;;;;3.00;3.00;;;;;20.76;43.86;102519.16;5015836;28;45334;-73
2022/12/01 06:40:28;;;;;;;;;6.25;4.00;;;;;20.75;43.86;102515.69;5016185;28;45282;-73
2022/12/01 06:42:54;;;;;;;;;7.00;5.00;;;;;20.71;43.71;102511.63;5015869;28;45389;-73
2022/12/01 06:45:19;;;;;;;;;5.00;5.00;;;;;20.73;44.23;102510.53;5015900;28;45355;-73
2022/12/01 06:47:47;;;;;;;;;3.00;3.00;;;;;20.76;44.11;102513.88;5016198;28;45331;-73
2022/12/01 06:50:12;;;;;;;;;4.00;4.00;;;;;20.76;44.03;102511.22;5016061;28;45351;-73
2022/12/01 06:52:38;;;;;;;;;4.00;4.00;;;;;20.67;44.14;102504.91;5015370;28;46187;-73
2022/12/01 06:55:04;;;;;;;;;7.00;5.00;;;;;20.70;44.05;102505.50;5015735;28;45351;-76
2022/12/01 06:57:31;;;;;;;;;7.33;5.67;;;;;20.74;43.75;102517.47;5005168;28;45418;-76
2022/12/01 06:59:56;;;;;;;;;4.00;4.00;;;;;20.75;43.90;102518.31;5012953;28;45400;-76
2022/12/01 07:02:22;;;;;;;;;6.00;4.00;;;;;20.70;44.03;102510.78;5014478;28;47306;-76
2022/12/01 07:04:47;;;;;;;;;4.00;4.00;;;;;20.75;43.63;102520.97;5015260;28;45513;-76
2022/12/01 07:07:12;;;;;;;;;6.75;5.00;;;;;20.62;44.05;102506.16;5014682;28;45415;-72
2022/12/01 07:09:38;;;;;;;;;6.00;4.67;;;;;20.74;43.85;102530.69;5014095;28;45359;-73
2022/12/01 07:12:04;;;;;;;;;6.67;5.00;;;;;20.72;44.22;102524.72;4995869;28;47000;-73
2022/12/01 07:14:30;;;;;;;;;4.00;4.00;;;;;20.68;44.16;102531.25;5013897;28;45556;-73
2022/12/01 07:16:56;;;;;;;;;5.67;5.00;;;;;20.76;44.47;102540.31;5012912;28;45511;-73
2022/12/01 07:19:22;;;;;;;;;4.00;4.00;;;;;20.77;44.33;102552.56;5013259;28;45508;-73
2022/12/01 07:21:47;;;;;;;;;3.67;3.67;;;;;20.78;44.37;102562.19;5012917;28;45379;-74
2022/12/01 07:24:13;;;;;;;;;5.00;5.00;;;;;20.76;44.47;102556.19;5013774;28;45327;-73
2022/12/01 07:26:39;;;;;;;;;4.50;4.00;;;;;20.77;44.12;102564.00;5014508;28;45374;-73
2022/12/01 07:29:05;;;;;;;;;4.33;4.33;;;;;20.76;44.58;102564.97;5014636;28;45460;-75
2022/12/01 07:31:30;;;;;;;;;7.67;4.67;;;;;20.74;44.08;102570.38;5014975;28;45394;-75
2022/12/01 07:33:55;;;;;;;;;7.75;5.25;;;;;20.79;44.62;102577.09;5015291;28;45482;-73
2022/12/01 07:36:21;;;;;;;;;5.67;4.67;;;;;20.79;44.25;102575.28;5014831;28;45440;-74
2022/12/01 07:38:46;;;;;;;;;4.67;3.67;;;;;20.80;44.43;102581.41;5015381;28;45535;-74
2022/12/01 07:41:14;;;;;;;;;5.75;5.25;;;;;20.81;44.46;102591.03;5015199;28;45398;-74
2022/12/01 07:43:40;;;;;;;;;5.50;5.00;;;;;20.81;44.22;102591.88;5015112;28;45424;-74
2022/12/01 07:46:15;;;;;;;;;6.67;5.00;;;;;20.81;44.54;102598.97;5015283;28;45309;-73
2022/12/01 07:48:41;;;;;;;;;5.00;4.50;;;;;20.81;44.39;102605.09;5015209;28;45430;-74
2022/12/01 07:51:09;;;;;;;;;7.50;5.25;;;;;20.80;44.50;102605.22;5014752;28;46074;-74
2022/12/01 07:53:35;;;;;;;;;5.50;4.50;;;;;20.79;44.91;102601.72;5014828;28;45388;-74
2022/12/01 07:56:01;;;;;;;;;5.25;2.00;;;;;20.79;44.60;102606.22;5014999;28;45403;-74
2022/12/01 07:58:26;;;;;;;;;4.25;4.25;;;;;20.78;44.31;102602.72;5014866;28;45351;-74
2022/12/01 08:00:52;;;;;;;;;4.00;4.00;;;;;20.73;44.39;102592.53;5014887;28;45998;-74
2022/12/01 08:03:18;;;;;;;;;6.25;3.50;;;;;20.78;44.56;102607.16;5014893;28;45355;-74
2022/12/01 08:05:44;;;;;;;;;3.75;3.00;;;;;20.72;44.34;102600.56;5014569;28;45363;-74
2022/12/01 08:08:09;;;;;;;;;4.50;4.50;;;;;20.68;44.50;102597.38;5014482;28;45455;-74
2022/12/01 08:10:36;;;;;;;;;7.00;4.50;;;;;20.77;44.38;102616.91;5014633;28;46354;-74
2022/12/01 08:13:02;;;;;;;;;6.75;5.00;;;;;20.77;44.61;102614.25;5014567;28;45272;-74
2022/12/01 08:15:28;;;;;;;;;5.25;3.00;;;;;20.77;44.30;102619.53;5017655;28;45257;-74
2022/12/01 08:17:53;;;;;;;;;6.25;4.25;;;;;20.77;44.34;102624.00;5018628;28;45225;-74
2022/12/01 08:20:20;;;;;;;;;7.25;6.00;;;;;20.77;44.81;102621.34;5017852;28;45323;-74
2022/12/01 08:22:45;;;;;;;;;5.00;5.00;;;;;20.76;44.69;102620.53;5018186;28;45559;-74
2022/12/01 08:25:11;;;;;;;;;4.33;4.33;;;;;20.76;44.70;102620.53;5018041;28;45403;-74
2022/12/01 08:27:36;;;;;;;;;7.25;4.00;;;;;20.76;44.44;102625.81;5018226;28;45419;-74
2022/12/01 08:30:01;;;;;;;;;4.00;4.00;;;;;20.76;44.75;102619.69;5017981;28;46176;-74
2022/12/01 08:32:28;;;;;;;;;4.00;4.00;;;;;20.76;44.62;102619.69;5017991;28;45513;-74
2022/12/01 08:34:53;;;;;;;;;7.00;5.33;;;;;20.76;44.56;102617.88;5017706;28;45332;-74
2022/12/01 08:37:19;;;;;;;;;6.00;4.25;;;;;20.74;44.18;102611.84;5017922;28;45403;-74
2022/12/01 08:39:44;;;;;;;;;5.75;5.50;;;;;20.58;44.37;102588.50;5017704;28;46838;-74
2022/12/01 08:42:09;;;;;;;;;8.00;7.75;;;;;20.75;44.09;102610.91;5017788;28;45395;-74
2022/12/01 08:44:35;;;;;;;;;3.00;3.00;;;;;20.76;44.57;102612.59;5018050;28;45370;-74
2022/12/01 08:47:00;;;;;;;;;5.25;5.00;;;;;20.77;44.56;102613.41;5017864;28;45225;-74
2022/12/01 08:49:25;;;;;;;;;6.00;5.75;;;;;20.75;44.42;102610.91;5017400;28;45329;-74
2022/12/01 08:51:51;;;;;;;;;5.50;3.50;;;;;20.74;44.47;102618.00;5017581;28;52379;-74
2022/12/01 08:54:16;;;;;;;;;9.50;6.00;;;;;20.73;44.28;102613.69;5017627;28;45323;-74
2022/12/01 08:56:43;;;;;;;;;6.50;5.25;;;;;20.73;44.25;102612.84;5017638;28;45374;-74
2022/12/01 08:59:09;;;;;;;;;10.25;6.50;;;;;20.68;44.12;102602.66;5017619;28;46197;-74
2022/12/01 09:01:50;;;;;;;;;10.00;6.00;;;;;20.74;44.22;102615.34;5017488;28;45316;-74
2022/12/01 09:04:17;;;;;;;;;5.00;4.00;;;;;20.75;44.00;102613.53;5017331;28;45421;-74
2022/12/01 09:06:45;;;;;;;;;6.50;5.50;;;;;20.74;44.18;102604.75;5017620;28;45629;-74
2022/12/01 09:09:13;;;;;;;;;5.75;4.25;;;;;20.76;43.67;102615.25;5017423;28;47220;-74
2022/12/01 09:11:40;;;;;;;;;7.00;4.00;;;;;20.77;44.04;102614.25;4999473;28;45914;-74
2022/12/01 09:14:05;;;;;;;;;5.75;5.75;;;;;20.79;44.33;102614.16;5017260;28;45373;-74
2022/12/01 09:16:31;;;;;;;;;4.75;3.75;;;;;20.69;44.35;102608.75;5017281;28;45360;-74
2022/12/01 09:18:56;;;;;;;;;6.25;5.25;;;;;20.80;44.33;102618.44;4999117;28;47481;-74
2022/12/01 09:21:27;;;;;;;;;7.00;7.00;;;;;20.81;43.94;102620.13;5017458;28;45256;-74
2022/12/01 09:23:53;;;;;;;;;5.00;5.00;;;;;20.80;44.44;102615.81;5017434;28;45538;-74
2022/12/01 09:26:19;;;;;;;;;7.00;4.75;;;;;20.80;44.22;102613.16;4998384;28;45380;-74
2022/12/01 09:28:45;;;;;;;;;5.75;4.75;;;;;20.76;44.07;102609.94;5016979;28;46146;-74
2022/12/01 09:31:12;;;;;;;;;6.00;6.00;;;;;20.79;44.29;102622.91;5017236;28;45278;-74
2022/12/01 09:33:37;;;;;;;;;5.25;5.25;;;;;20.79;44.45;102622.91;5016826;28;45289;-74
2022/12/01 09:36:05;;;;;;;;;6.75;5.25;;;;;20.79;44.43;102619.44;5017030;28;45425;-74
2022/12/01 09:38:33;;;;;;;;;7.75;5.25;;;;;20.79;44.48;102614.16;5016979;28;46328;-74
2022/12/01 09:41:10;;;;;;;;;6.00;5.25;;;;;20.79;44.30;102620.25;5017122;28;45387;-73
2022/12/01 09:43:44;;;;;;;;;4.75;4.00;;;;;20.66;43.91;102583.41;5017050;28;45379;-74
2022/12/01 09:46:17;;;;;;;;;9.00;6.50;;;;;20.78;44.07;102613.28;5016439;28;45363;-74
2022/12/01 09:48:47;;;;;;;;;6.67;5.00;;;;;20.78;43.91;102610.66;5016706;28;46404;-74
2022/12/01 09:51:16;;;;;;;;;6.25;6.00;;;;;20.78;43.89;102610.66;5016871;28;45374;-74
2022/12/01 09:53:43;;;;;;;;;6.50;5.25;;;;;20.76;44.41;102611.75;5016717;28;45326;-74
2022/12/01 09:56:20;;;;;;;;;6.00;4.75;;;;;20.77;43.79;102616.91;5016677;28;45311;-74
2022/12/01 09:58:50;;;;;;;;;5.25;5.25;;;;;20.78;44.40;102626.53;4998589;28;48284;-74
2022/12/01 10:01:18;;;;;;;;;5.25;5.25;;;;;20.77;44.21;102638.06;4998435;28;46097;-74
2022/12/01 10:03:48;;;;;;;;;5.25;5.00;;;;;20.77;43.84;102634.56;5016617;28;45443;-74
2022/12/01 10:06:30;;;;;;;;;8.75;6.75;;;;;20.77;44.38;102635.41;5016658;28;45352;-74
2022/12/01 10:09:13;;;;;;;;;6.00;6.00;;;;;20.75;44.16;102642.66;5016466;28;47284;-74
2022/12/01 10:11:41;;;;;;;;;7.00;6.00;;;;;20.77;44.29;102637.22;5016389;28;45372;-74
2022/12/01 10:14:13;;;;;;;;;12.00;6.50;;;;;20.71;44.29;102633.28;5016554;28;45347;-74
2022/12/01 10:16:54;;;;;;;;;5.00;5.00;;;;;20.76;44.04;102633.75;5016031;28;45452;-74
2022/12/01 10:19:44;;;;;;;;;5.25;4.25;;;;;20.76;43.90;102619.69;5016405;28;45449;-74
2022/12/01 10:22:28;;;;;;;;;8.50;8.25;;;;;20.76;44.06;102617.88;5016287;28;45414;-74
2022/12/01 10:24:57;;;;;;;;;6.50;6.00;;;;;20.77;43.87;102613.41;5016157;28;45350;-74
2022/12/01 10:28:23;;;;;;;;;6.25;6.00;;;;;20.72;43.84;102608.50;5016387;28;45410;-73
2022/12/01 10:30:51;;;;;;;;;6.00;6.00;;;;;20.76;43.99;102614.41;4954571;28;45430;-74
2022/12/01 10:33:25;;;;;;;;;7.00;5.25;;;;;20.73;44.07;102610.19;4954864;28;45377;-74
2022/12/01 10:35:51;;;;;;;;;8.00;6.50;;;;;20.62;43.67;102598.72;4954667;28;45450;-74
2022/12/01 10:38:30;;;;;;;;;7.25;6.00;;;;;20.67;43.34;102602.75;4954809;28;45495;-74
2022/12/01 10:40:59;;;;;;;;;8.00;6.25;;;;;20.76;43.63;102603.81;4954587;28;45349;-74
2022/12/01 10:43:33;;;;;;;;;9.00;8.00;;;;;20.76;43.71;102607.31;4954651;28;45369;-73
2022/12/01 10:46:02;;;;;;;;;7.50;6.50;;;;;20.76;43.58;102599.38;4938445;28;45417;-73
2022/12/01 10:48:28;;;;;;;;;5.00;4.50;;;;;20.77;43.98;102608.97;4954774;28;45371;-73
2022/12/01 10:50:55;;;;;;;;;6.00;5.50;;;;;20.73;43.65;102592.53;4954507;28;45969;-75
2022/12/01 10:53:25;;;;;;;;;6.00;6.00;;;;;20.77;43.58;102606.31;4954694;28;45326;-74
2022/12/01 10:56:08;;;;;;;;;5.00;4.67;;;;;20.78;43.83;102602.72;4954376;28;45619;-74
2022/12/01 10:58:43;;;;;;;;;9.25;6.00;;;;;20.71;44.02;102590.97;4953993;28;45373;-73
2022/12/01 11:01:16;;;;;;;;;8.00;6.75;;;;;20.80;43.84;102594.63;4983896;28;46316;-74
2022/12/01 11:03:42;;;;;;;;;7.00;5.75;;;;;20.79;43.80;102598.28;5015497;28;45331;-74
2022/12/01 11:06:09;;;;;;;;;6.00;4.00;;;;;20.78;43.65;102589.50;5015834;28;45318;-74
2022/12/01 11:08:35;;;;;;;;;5.75;5.75;;;;;20.79;43.82;102583.22;5015918;28;45390;-75
2022/12/01 11:11:00;;;;;;;;;4.67;4.67;;;;;20.78;43.61;102591.28;5015496;28;47230;-74
2022/12/01 11:13:29;;;;;;;;;7.00;5.75;;;;;20.76;43.87;102580.84;5015086;28;45466;-74
2022/12/01 11:16:00;;;;;;;;;6.00;4.00;;;;;20.78;43.51;102586.00;5015722;28;45315;-75
2022/12/01 11:18:32;;;;;;;;;6.00;6.00;;;;;20.77;43.78;102586.97;5015618;28;45659;-74
2022/12/01 11:21:25;;;;;;;;;9.00;5.00;;;;;20.76;43.70;102588.78;5015356;28;47283;-74
2022/12/01 11:23:53;;;;;;;;;7.00;5.33;;;;;20.77;43.68;102589.59;5015400;28;45424;-74
2022/12/01 11:26:27;;;;;;;;;7.25;5.00;;;;;20.77;43.46;102577.22;4997469;28;45359;-74
2022/12/01 11:28:59;;;;;;;;;5.00;5.00;;;;;20.67;43.66;102558.66;5015129;28;45378;-74
2022/12/01 11:31:38;;;;;;;;;7.25;5.50;;;;;20.77;43.77;102576.38;5015267;28;45418;-74
2022/12/01 11:34:04;;;;;;;;;8.50;5.25;;;;;20.76;43.95;102575.56;5015321;28;45270;-74
2022/12/01 11:36:45;;;;;;;;;5.50;5.50;;;;;20.71;43.89;102567.16;5015215;28;45309;-73
2022/12/01 11:39:24;;;;;;;;;6.50;5.00;;;;;20.77;43.90;102569.28;5015290;28;45491;-75